createdAt,value
2023-05-13T00:02:02.102Z,6.15
2023-05-13T00:04:30.985Z,6.35
2023-05-13T00:06:58.473Z,6.45
2023-05-13T00:09:26.008Z,6.27
2023-05-13T00:11:53.623Z,6.22
2023-05-13T00:14:21.826Z,6.05
2023-05-13T00:16:49.368Z,6.03
2023-05-13T00:19:16.977Z,6.30
2023-05-13T00:21:45.899Z,6.43
2023-05-13T00:24:13.455Z,6.03
2023-05-13T00:26:40.931Z,6.45
2023-05-13T00:29:08.499Z,6.00
2023-05-13T00:31:36.072Z,7.07
2023-05-13T00:34:05.117Z,6.50
2023-05-13T00:36:32.762Z,6.50
2023-05-13T00:39:01.623Z,6.40
2023-05-13T00:41:29.194Z,6.35
2023-05-13T00:43:57.386Z,6.25
2023-05-13T00:46:25.236Z,5.83
2023-05-13T00:48:54.081Z,5.95
2023-05-13T00:51:21.694Z,6.10
2023-05-13T00:53:50.155Z,6.05
2023-05-13T00:56:21.589Z,6.30
2023-05-13T00:58:49.637Z,5.90
2023-05-13T01:01:25.048Z,5.97
2023-05-13T01:04:05.111Z,6.20
2023-05-13T01:06:41.468Z,5.90
2023-05-13T01:09:16.150Z,6.20
2023-05-13T01:11:47.473Z,6.60
2023-05-13T01:14:21.892Z,6.93
2023-05-13T01:16:59.858Z,6.22
2023-05-13T01:19:39.714Z,6.45
2023-05-13T01:22:08.631Z,6.53
2023-05-13T01:24:36.918Z,7.33
2023-05-13T01:27:06.229Z,6.97
2023-05-13T01:29:33.960Z,6.70
2023-05-13T01:32:04.287Z,6.68
2023-05-13T01:34:33.011Z,6.95
2023-05-13T01:37:00.857Z,7.20
2023-05-13T01:39:31.622Z,7.30
2023-05-13T01:42:03.161Z,7.18
2023-05-13T01:44:31.311Z,6.88
2023-05-13T01:46:59.967Z,6.90
2023-05-13T01:49:27.857Z,6.70
2023-05-13T01:51:55.455Z,6.80
2023-05-13T01:54:22.947Z,7.43
2023-05-13T01:56:56.780Z,7.22
2023-05-13T01:59:25.213Z,7.80
2023-05-13T02:01:52.841Z,7.40
2023-05-13T02:04:21.355Z,7.80
2023-05-13T02:06:48.918Z,7.32
2023-05-13T02:09:16.592Z,7.97
2023-05-13T02:11:44.170Z,8.30
2023-05-13T02:14:13.043Z,7.63
2023-05-13T02:16:40.681Z,8.00
2023-05-13T02:19:08.417Z,8.00
2023-05-13T02:21:36.098Z,7.53
2023-05-13T02:24:03.701Z,8.02
2023-05-13T02:26:31.432Z,7.80
2023-05-13T02:28:59.665Z,8.23
2023-05-13T02:31:28.717Z,8.05
2023-05-13T02:33:56.230Z,8.63
2023-05-13T02:36:23.798Z,8.35
2023-05-13T02:38:51.569Z,8.43
2023-05-13T02:41:19.720Z,8.70
2023-05-13T02:43:49.426Z,8.35
2023-05-13T02:46:17.285Z,8.63
2023-05-13T02:48:47.265Z,9.90
2023-05-13T02:51:14.839Z,9.30
2023-05-13T02:53:43.236Z,8.73
2023-05-13T02:56:10.867Z,8.75
2023-05-13T02:58:38.449Z,8.65
2023-05-13T03:01:06.052Z,9.23
2023-05-13T03:03:33.692Z,9.27
2023-05-13T03:06:02.718Z,9.02
2023-05-13T03:08:30.504Z,9.02
2023-05-13T03:10:58.737Z,8.90
2023-05-13T03:13:26.245Z,8.98
2023-05-13T03:15:53.837Z,9.47
2023-05-13T03:18:21.476Z,9.43
2023-05-13T03:20:49.304Z,9.82
2023-05-13T03:23:18.316Z,9.18
2023-05-13T03:25:48.304Z,9.93
2023-05-13T03:28:15.908Z,9.13
2023-05-13T03:30:44.895Z,10.35
2023-05-13T03:33:19.116Z,9.45
2023-05-13T03:35:48.480Z,10.32
2023-05-13T03:38:18.307Z,10.65
2023-05-13T03:40:49.189Z,10.33
2023-05-13T03:43:17.241Z,9.90
2023-05-13T03:45:50.420Z,10.30
2023-05-13T03:48:20.104Z,10.05
2023-05-13T03:50:47.699Z,11.10
2023-05-13T03:53:18.325Z,11.17
2023-05-13T03:55:46.887Z,10.77
2023-05-13T03:58:16.192Z,10.85
2023-05-13T04:00:46.880Z,11.18
2023-05-13T04:03:16.083Z,11.25
2023-05-13T04:05:44.113Z,11.57
2023-05-13T04:08:13.136Z,12.27
2023-05-13T04:10:42.082Z,11.18
2023-05-13T04:13:09.664Z,11.57
2023-05-13T04:15:37.335Z,11.68
2023-05-13T04:18:06.663Z,11.63
2023-05-13T04:20:35.646Z,11.93
2023-05-13T04:23:03.805Z,12.18
2023-05-13T04:25:31.604Z,11.10
2023-05-13T04:28:00.598Z,12.02
2023-05-13T04:30:35.870Z,12.27
2023-05-13T04:33:04.482Z,11.85
2023-05-13T04:35:32.878Z,12.90
2023-05-13T04:38:02.569Z,12.13
2023-05-13T04:40:30.933Z,12.10
2023-05-13T04:43:04.714Z,12.80
2023-05-13T04:45:36.975Z,12.10
2023-05-13T04:48:06.693Z,11.65
2023-05-13T04:50:34.420Z,11.30
2023-05-13T04:53:02.716Z,12.70
2023-05-13T04:55:30.391Z,13.13
2023-05-13T04:57:58.087Z,11.98
2023-05-13T05:00:27.545Z,12.00
2023-05-13T05:02:55.778Z,11.27
2023-05-13T05:05:23.822Z,12.43
2023-05-13T05:07:52.192Z,12.07
2023-05-13T05:10:21.619Z,11.25
2023-05-13T05:12:54.536Z,12.00
2023-05-13T05:15:22.999Z,11.95
2023-05-13T05:17:56.770Z,11.88
2023-05-13T05:20:25.318Z,11.03
2023-05-13T05:22:56.091Z,10.50
2023-05-13T05:25:27.541Z,10.18
2023-05-13T05:27:55.496Z,10.77
2023-05-13T05:30:23.795Z,11.43
2023-05-13T05:33:00.587Z,11.37
2023-05-13T05:35:28.343Z,11.45
2023-05-13T05:37:57.838Z,11.00
2023-05-13T05:40:25.857Z,10.63
2023-05-13T05:42:53.559Z,10.23
2023-05-13T05:45:21.651Z,10.47
2023-05-13T05:47:49.305Z,9.63
2023-05-13T05:50:20.270Z,10.55
2023-05-13T05:52:48.202Z,10.48
2023-05-13T05:55:16.707Z,10.23
2023-05-13T05:57:44.414Z,10.10
2023-05-13T06:00:13.690Z,9.68
2023-05-13T06:02:44.465Z,9.65
2023-05-13T06:05:13.476Z,9.32
2023-05-13T06:07:43.774Z,9.25
2023-05-13T06:10:12.170Z,8.93
2023-05-13T06:12:40.759Z,8.40
2023-05-13T06:15:11.428Z,9.20
2023-05-13T06:17:39.185Z,9.90
2023-05-13T06:20:09.022Z,9.38
2023-05-13T06:22:36.839Z,9.17
2023-05-13T06:25:06.835Z,8.65
2023-05-13T06:27:34.928Z,9.10
2023-05-13T06:30:02.842Z,8.38
2023-05-13T06:32:30.432Z,8.55
2023-05-13T06:34:58.161Z,8.83
2023-05-13T06:37:25.879Z,8.75
2023-05-13T06:39:53.493Z,7.88
2023-05-13T06:42:22.686Z,8.52
2023-05-13T06:44:58.260Z,9.13
2023-05-13T06:47:29.668Z,8.17
2023-05-13T06:49:57.365Z,8.07
2023-05-13T06:52:25.053Z,7.38
2023-05-13T06:54:52.691Z,8.45
2023-05-13T06:57:25.195Z,8.02
2023-05-13T07:00:00.052Z,7.23
2023-05-13T07:02:27.719Z,7.32
2023-05-13T07:04:55.331Z,7.50
2023-05-13T07:07:22.913Z,7.20
2023-05-13T07:09:50.565Z,7.10
2023-05-13T07:12:18.269Z,7.53
2023-05-13T07:14:47.285Z,6.63
2023-05-13T07:17:14.937Z,7.20
2023-05-13T07:19:42.606Z,6.90
2023-05-13T07:22:10.350Z,6.32
2023-05-13T07:24:38.517Z,7.07
2023-05-13T07:27:06.576Z,6.38
2023-05-13T07:29:34.745Z,6.40
2023-05-13T07:32:06.445Z,6.40
2023-05-13T07:34:34.151Z,6.13
2023-05-13T07:37:01.892Z,6.30
2023-05-13T07:39:29.979Z,6.20
2023-05-13T07:41:57.580Z,6.45
2023-05-13T07:44:25.820Z,6.38
2023-05-13T07:46:53.643Z,6.03
2023-05-13T07:49:22.765Z,6.17
2023-05-13T07:51:50.449Z,5.90
2023-05-13T07:54:18.335Z,5.32
2023-05-13T07:56:47.906Z,5.80
2023-05-13T07:59:15.545Z,5.60
2023-05-13T08:01:43.490Z,6.10
2023-05-13T08:04:11.350Z,5.50
2023-05-13T08:06:40.685Z,5.70
2023-05-13T08:09:09.574Z,5.15
2023-05-13T08:11:37.124Z,5.40
2023-05-13T08:14:06.164Z,5.13
2023-05-13T08:16:35.634Z,6.13
2023-05-13T08:19:03.393Z,5.43
2023-05-13T08:21:31.696Z,5.18
2023-05-13T08:24:00.710Z,5.10
2023-05-13T08:26:28.822Z,5.20
2023-05-13T08:28:57.113Z,5.18
2023-05-13T08:31:25.357Z,5.40
2023-05-13T08:33:53.648Z,5.10
2023-05-13T08:36:22.868Z,4.88
2023-05-13T08:38:50.495Z,4.80
2023-05-13T08:41:21.888Z,4.65
2023-05-13T08:43:52.353Z,4.88
2023-05-13T08:46:22.019Z,4.68
2023-05-13T08:48:50.079Z,4.43
2023-05-13T08:51:18.027Z,4.60
2023-05-13T08:53:47.350Z,4.80
2023-05-13T08:56:15.300Z,4.70
2023-05-13T08:58:44.512Z,4.95
2023-05-13T09:01:12.570Z,4.60
2023-05-13T09:03:48.378Z,4.60
2023-05-13T09:06:16.441Z,4.72
2023-05-13T09:08:44.383Z,4.10
2023-05-13T09:11:12.180Z,4.80
2023-05-13T09:13:40.428Z,4.43
2023-05-13T09:16:09.996Z,4.20
2023-05-13T09:18:37.867Z,4.68
2023-05-13T09:21:25.713Z,4.03
2023-05-13T09:24:02.602Z,4.45
2023-05-13T09:26:31.249Z,4.25
2023-05-13T09:29:18.977Z,3.97
2023-05-13T09:31:49.739Z,4.22
2023-05-13T09:34:26.169Z,4.53
2023-05-13T09:37:01.393Z,4.00
2023-05-13T09:39:29.099Z,4.43
2023-05-13T09:41:57.085Z,4.40
2023-05-13T09:44:24.825Z,4.60
2023-05-13T09:46:54.768Z,4.72
2023-05-13T09:49:24.654Z,4.20
2023-05-13T09:51:52.533Z,4.50
2023-05-13T09:54:20.309Z,4.50
2023-05-13T09:56:48.668Z,4.72
2023-05-13T09:59:16.707Z,4.20
2023-05-13T10:01:46.393Z,4.00
2023-05-13T10:04:16.379Z,4.03
2023-05-13T10:06:46.608Z,4.40
2023-05-13T10:09:17.590Z,3.85
2023-05-13T10:11:48.823Z,3.72
2023-05-13T10:14:16.936Z,3.90
2023-05-13T10:16:45.406Z,3.92
2023-05-13T10:19:15.174Z,3.83
2023-05-13T10:21:43.405Z,3.80
2023-05-13T10:24:11.246Z,4.05
2023-05-13T10:26:39.063Z,3.92
2023-05-13T10:29:07.085Z,4.05
2023-05-13T10:31:35.509Z,4.50
2023-05-13T10:34:03.168Z,4.15
2023-05-13T10:36:48.365Z,3.67
2023-05-13T10:39:55.395Z,3.97
2023-05-13T10:42:46.077Z,4.10
2023-05-13T10:45:13.562Z,3.77
2023-05-13T10:47:41.172Z,3.90
2023-05-13T10:50:23.991Z,4.07
2023-05-13T10:52:57.408Z,3.92
2023-05-13T10:55:27.084Z,4.10
2023-05-13T10:58:14.259Z,4.00
2023-05-13T11:00:46.130Z,3.67
2023-05-13T11:03:29.474Z,3.63
2023-05-13T11:06:05.110Z,3.63
2023-05-13T11:08:41.655Z,3.55
2023-05-13T11:11:33.973Z,3.53
2023-05-13T11:14:09.194Z,3.55
2023-05-13T11:16:37.919Z,3.85
2023-05-13T11:19:10.013Z,3.97
2023-05-13T11:21:39.561Z,3.80
2023-05-13T11:24:09.357Z,3.80
2023-05-13T11:26:46.186Z,3.88
2023-05-13T11:29:14.128Z,3.60
2023-05-13T11:31:49.173Z,3.67
2023-05-13T11:34:18.098Z,3.72
2023-05-13T11:36:47.541Z,4.07
2023-05-13T11:39:18.851Z,4.25
2023-05-13T11:41:47.757Z,4.05
2023-05-13T11:44:16.472Z,4.05
2023-05-13T11:46:53.990Z,4.00
2023-05-13T11:49:38.654Z,3.90
2023-05-13T11:52:09.195Z,3.75
2023-05-13T11:54:47.251Z,4.43
2023-05-13T11:57:22.140Z,4.10
2023-05-13T11:59:54.710Z,3.70
2023-05-13T12:02:23.287Z,3.63
2023-05-13T12:04:51.611Z,3.83
2023-05-13T12:07:26.700Z,3.70
2023-05-13T12:09:58.402Z,3.80
2023-05-13T12:12:26.846Z,3.55
2023-05-13T12:14:55.423Z,3.77
2023-05-13T12:17:23.334Z,3.80
2023-05-13T12:20:15.695Z,3.42
2023-05-13T12:22:59.693Z,3.58
2023-05-13T12:25:38.709Z,3.60
2023-05-13T12:28:12.929Z,3.80
2023-05-13T12:30:41.801Z,3.30
2023-05-13T12:33:14.617Z,3.65
2023-05-13T12:35:42.337Z,3.28
2023-05-13T12:38:15.780Z,3.30
2023-05-13T12:40:44.968Z,3.30
2023-05-13T12:43:13.125Z,3.60
2023-05-13T12:45:45.052Z,3.08
2023-05-13T12:48:14.275Z,3.38
2023-05-13T12:50:41.916Z,3.38
2023-05-13T12:53:09.415Z,3.17
2023-05-13T12:55:39.760Z,3.28
2023-05-13T12:58:11.735Z,3.30
2023-05-13T13:00:39.427Z,3.03
2023-05-13T13:03:08.044Z,3.20
2023-05-13T13:05:36.027Z,3.47
2023-05-13T13:08:05.117Z,3.50
2023-05-13T13:10:32.636Z,3.60
2023-05-13T13:13:00.175Z,3.40
2023-05-13T13:15:29.071Z,3.40
2023-05-13T13:17:56.650Z,3.40
2023-05-13T13:20:24.543Z,3.10
2023-05-13T13:22:53.619Z,3.17
2023-05-13T13:25:21.365Z,3.42
2023-05-13T13:27:49.266Z,3.22
2023-05-13T13:30:16.755Z,2.93
2023-05-13T13:32:45.739Z,3.00
2023-05-13T13:35:13.238Z,3.10
2023-05-13T13:37:40.797Z,3.55
2023-05-13T13:40:09.537Z,3.30
2023-05-13T13:42:44.099Z,2.87
2023-05-13T13:45:13.496Z,3.47
2023-05-13T13:47:41.209Z,3.60
2023-05-13T13:50:11.386Z,3.17
2023-05-13T13:52:38.916Z,2.90
2023-05-13T13:55:07.714Z,3.20
2023-05-13T13:57:35.293Z,2.95
2023-05-13T14:00:02.821Z,3.13
2023-05-13T14:02:32.554Z,3.10
2023-05-13T14:05:00.240Z,3.00
2023-05-13T14:07:29.132Z,3.23
2023-05-13T14:09:57.974Z,3.00
2023-05-13T14:12:26.985Z,3.00
2023-05-13T14:14:54.553Z,3.00
2023-05-13T14:17:22.228Z,3.05
2023-05-13T14:19:51.628Z,3.20
2023-05-13T14:22:19.273Z,16.20
2023-05-13T14:24:48.173Z,16.20
2023-05-13T14:27:15.769Z,4.53
2023-05-13T14:29:43.327Z,2.80
2023-05-13T14:32:10.880Z,3.20
2023-05-13T14:34:38.233Z,3.00
2023-05-13T14:37:06.484Z,3.22
2023-05-13T14:39:34.084Z,2.85
2023-05-13T14:42:02.984Z,3.72
2023-05-13T14:44:30.550Z,3.17
2023-05-13T14:46:58.182Z,3.10
2023-05-13T14:49:26.090Z,2.85
2023-05-13T14:51:53.632Z,3.00
2023-05-13T14:54:21.927Z,3.33
2023-05-13T14:56:49.473Z,5.50
2023-05-13T14:59:18.470Z,3.13
2023-05-13T15:01:46.257Z,2.92
2023-05-13T15:04:13.882Z,3.00
2023-05-13T15:06:41.550Z,2.80
2023-05-13T15:09:09.105Z,4.30
2023-05-13T15:11:37.153Z,45.65
2023-05-13T15:14:04.667Z,4.88
2023-05-13T15:16:33.585Z,6.53
2023-05-13T15:19:01.134Z,9.65
2023-05-13T15:21:28.712Z,3.80
2023-05-13T15:23:56.278Z,2.90
2023-05-13T15:26:23.766Z,3.05
2023-05-13T15:28:51.269Z,4.47
2023-05-13T15:31:18.843Z,2.88
2023-05-13T15:33:47.753Z,3.50
2023-05-13T15:36:15.579Z,3.80
2023-05-13T15:38:43.142Z,3.28
2023-05-13T15:41:10.661Z,3.10
2023-05-13T15:43:38.226Z,3.30
2023-05-13T15:46:06.085Z,2.87
2023-05-13T15:48:33.777Z,2.95
2023-05-13T15:51:03.674Z,3.20
2023-05-13T15:53:31.387Z,3.10
2023-05-13T15:55:58.906Z,2.70
2023-05-13T15:58:26.523Z,2.90
2023-05-13T16:00:54.074Z,2.70
2023-05-13T16:03:21.597Z,3.30
2023-05-13T16:05:49.185Z,3.10
2023-05-13T16:08:18.590Z,3.00
2023-05-13T16:10:46.229Z,2.83
2023-05-13T16:13:13.786Z,2.92
2023-05-13T16:15:41.511Z,2.90
2023-05-13T16:18:09.169Z,3.35
2023-05-13T16:20:36.893Z,2.90
2023-05-13T16:23:04.487Z,2.90
2023-05-13T16:25:33.473Z,3.90
2023-05-13T16:28:01.110Z,3.72
2023-05-13T16:30:28.695Z,4.18
2023-05-13T16:32:56.667Z,3.97
2023-05-13T16:35:24.273Z,3.00
2023-05-13T16:37:52.031Z,3.10
2023-05-13T16:40:19.756Z,3.25
2023-05-13T16:42:48.729Z,3.00
2023-05-13T16:45:16.425Z,2.80
2023-05-13T16:47:44.244Z,2.90
2023-05-13T16:50:11.974Z,3.00
2023-05-13T16:52:39.630Z,3.20
2023-05-13T16:55:08.150Z,2.80
2023-05-13T16:57:35.897Z,2.92
2023-05-13T17:00:05.616Z,2.97
2023-05-13T17:02:33.336Z,3.28
2023-05-13T17:05:01.002Z,3.00
2023-05-13T17:07:28.836Z,3.33
2023-05-13T17:09:56.710Z,3.00
2023-05-13T17:12:24.603Z,3.17
2023-05-13T17:14:52.182Z,2.80
2023-05-13T17:17:21.189Z,3.75
2023-05-13T17:19:48.890Z,3.78
2023-05-13T17:22:17.861Z,4.38
2023-05-13T17:24:45.540Z,3.73
2023-05-13T17:27:13.374Z,3.50
2023-05-13T17:29:40.998Z,3.83
2023-05-13T17:32:09.116Z,4.28
2023-05-13T17:34:38.118Z,3.38
2023-05-13T17:37:06.043Z,3.40
2023-05-13T17:39:33.652Z,3.10
2023-05-13T17:42:01.440Z,3.35
2023-05-13T17:44:29.177Z,3.10
2023-05-13T17:46:56.983Z,3.58
2023-05-13T17:49:24.691Z,3.90
2023-05-13T17:51:53.952Z,4.20
2023-05-13T17:54:21.696Z,3.67
2023-05-13T17:56:49.950Z,3.40
2023-05-13T17:59:17.684Z,3.22
2023-05-13T18:01:45.372Z,4.00
2023-05-13T18:04:13.143Z,3.30
2023-05-13T18:06:41.334Z,2.95
2023-05-13T18:09:11.109Z,3.42
2023-05-13T18:11:38.673Z,2.90
2023-05-13T18:14:06.717Z,3.17
2023-05-13T18:16:34.458Z,3.00
2023-05-13T18:19:02.106Z,3.65
2023-05-13T18:21:30.753Z,3.35
2023-05-13T18:23:58.464Z,3.08
2023-05-13T18:26:27.570Z,3.43
2023-05-13T18:28:55.221Z,3.50
2023-05-13T18:31:22.750Z,3.40
2023-05-13T18:33:50.293Z,3.03
2023-05-13T18:36:17.881Z,3.10
2023-05-13T18:38:47.816Z,5.50
2023-05-13T18:41:15.579Z,3.85
2023-05-13T18:43:44.446Z,4.55
2023-05-13T18:46:12.272Z,4.80
2023-05-13T18:48:39.826Z,5.18
2023-05-13T18:51:07.408Z,5.40
2023-05-13T18:53:34.993Z,6.10
2023-05-13T18:56:02.707Z,5.43
2023-05-13T18:58:30.623Z,5.32
2023-05-13T19:00:59.574Z,4.90
2023-05-13T19:03:27.629Z,12.87
2023-05-13T19:05:55.309Z,6.18
2023-05-13T19:08:22.942Z,4.55
2023-05-13T19:10:50.656Z,4.43
2023-05-13T19:13:20.971Z,4.65
2023-05-13T19:15:48.909Z,4.03
2023-05-13T19:18:17.845Z,4.15
2023-05-13T19:20:46.330Z,4.40
2023-05-13T19:23:14.583Z,4.00
2023-05-13T19:25:43.040Z,4.68
2023-05-13T19:28:11.446Z,4.40
2023-05-13T19:30:39.609Z,4.38
2023-05-13T19:33:07.283Z,4.32
2023-05-13T19:35:37.001Z,4.60
2023-05-13T19:38:04.574Z,8.52
2023-05-13T19:40:32.151Z,5.90
2023-05-13T19:42:59.745Z,5.82
2023-05-13T19:45:27.308Z,3.95
2023-05-13T19:47:55.047Z,4.28
2023-05-13T19:50:23.140Z,3.97
2023-05-13T19:52:52.399Z,5.50
2023-05-13T19:55:20.255Z,7.60
2023-05-13T19:57:48.421Z,5.95
2023-05-13T20:00:16.784Z,3.88
2023-05-13T20:02:44.462Z,4.15
2023-05-13T20:05:11.978Z,4.17
2023-05-13T20:07:39.553Z,3.75
2023-05-13T20:10:10.358Z,3.90
2023-05-13T20:12:38.147Z,4.20
2023-05-13T20:15:06.787Z,4.78
2023-05-13T20:17:34.549Z,4.43
2023-05-13T20:20:02.526Z,5.55
2023-05-13T20:22:30.190Z,7.05
2023-05-13T20:24:57.729Z,4.30
2023-05-13T20:27:26.634Z,4.20
2023-05-13T20:29:55.553Z,4.20
2023-05-13T20:32:24.860Z,4.32
2023-05-13T20:34:54.245Z,4.53
2023-05-13T20:37:23.722Z,5.75
2023-05-13T20:39:51.929Z,9.85
2023-05-13T20:42:21.390Z,4.83
2023-05-13T20:44:50.672Z,4.80
2023-05-13T20:47:18.383Z,4.68
2023-05-13T20:49:46.483Z,4.30
2023-05-13T20:52:14.120Z,4.90
2023-05-13T20:54:41.704Z,4.30
2023-05-13T20:57:09.487Z,4.38
2023-05-13T20:59:37.323Z,5.00
2023-05-13T21:02:06.340Z,4.70
2023-05-13T21:04:33.897Z,5.30
2023-05-13T21:07:01.486Z,4.70
2023-05-13T21:09:29.037Z,4.60
2023-05-13T21:11:56.582Z,4.53
2023-05-13T21:14:24.073Z,4.65
2023-05-13T21:16:51.676Z,4.70
2023-05-13T21:19:22.055Z,5.03
2023-05-13T21:21:50.087Z,5.05
2023-05-13T21:24:18.994Z,5.03
2023-05-13T21:26:46.699Z,4.82
2023-05-13T21:29:14.238Z,5.00
2023-05-13T21:31:42.536Z,5.20
2023-05-13T21:34:10.137Z,5.07
2023-05-13T21:36:39.761Z,5.47
2023-05-13T21:39:07.613Z,5.20
2023-05-13T21:41:35.197Z,5.95
2023-05-13T21:44:02.706Z,5.13
2023-05-13T21:46:30.372Z,5.07
2023-05-13T21:48:59.388Z,5.30
2023-05-13T21:51:27.148Z,5.28
2023-05-13T21:53:56.108Z,4.82
2023-05-13T21:56:23.627Z,5.13
2023-05-13T21:58:51.286Z,5.18
2023-05-13T22:01:19.076Z,5.10
2023-05-13T22:03:46.628Z,5.40
2023-05-13T22:06:15.271Z,5.20
2023-05-13T22:08:42.887Z,6.27
2023-05-13T22:11:12.497Z,6.00
2023-05-13T22:13:40.040Z,5.40
2023-05-13T22:16:08.317Z,5.18
2023-05-13T22:18:36.165Z,5.53
2023-05-13T22:21:05.599Z,5.27
2023-05-13T22:23:33.138Z,5.72
2023-05-13T22:26:00.699Z,5.30
2023-05-13T22:28:29.579Z,5.55
2023-05-13T22:30:57.156Z,5.30
2023-05-13T22:33:24.666Z,5.40
2023-05-13T22:35:52.296Z,5.47
2023-05-13T22:38:19.810Z,5.55
2023-05-13T22:40:47.331Z,5.60
2023-05-13T22:43:14.870Z,5.65
2023-05-13T22:45:43.750Z,5.60
2023-05-13T22:48:11.342Z,7.38
2023-05-13T22:50:39.021Z,6.00
2023-05-13T22:53:06.573Z,6.05
2023-05-13T22:55:34.057Z,5.68
2023-05-13T22:58:01.554Z,5.23
2023-05-13T23:00:29.118Z,5.80
2023-05-13T23:02:58.092Z,5.85
2023-05-13T23:05:25.682Z,5.50
2023-05-13T23:07:53.266Z,6.03
2023-05-13T23:10:20.822Z,6.10
2023-05-13T23:12:48.440Z,5.32
2023-05-13T23:15:16.067Z,5.70
2023-05-13T23:17:43.778Z,5.80
2023-05-13T23:20:13.500Z,5.72
2023-05-13T23:22:41.214Z,6.77
2023-05-13T23:25:09.890Z,5.88
2023-05-13T23:27:37.414Z,5.93
2023-05-13T23:30:05.976Z,5.78
2023-05-13T23:32:33.585Z,5.55
2023-05-13T23:35:01.258Z,5.63
2023-05-13T23:37:30.208Z,6.03
2023-05-13T23:39:57.748Z,5.95
2023-05-13T23:42:25.643Z,6.13
2023-05-13T23:44:53.224Z,6.25
2023-05-13T23:47:20.977Z,6.30
2023-05-13T23:49:48.682Z,6.25
2023-05-13T23:52:17.043Z,6.20
2023-05-13T23:54:45.967Z,6.53
2023-05-13T23:57:13.472Z,6.63
2023-05-13T23:59:41.026Z,6.10
